sensor_id;sensor_type;location;lat;lon;timestamp;P1;durP1;ratioP1;P2;durP2;ratioP2
28625;SDS011;18905;42.668;23.364;2023-10-31T00:01:03;12.77;;;6.20;;
28625;SDS011;18905;42.668;23.364;2023-10-31T00:03:28;14.27;;;6.28;;
28625;SDS011;18905;42.668;23.364;2023-10-31T00:05:53;13.50;;;6.57;;
28625;SDS011;18905;42.668;23.364;2023-10-31T00:08:19;21.35;;;7.18;;
28625;SDS011;18905;42.668;23.364;2023-10-31T00:10:44;15.90;;;6.30;;
28625;SDS011;18905;42.668;23.364;2023-10-31T00:13:11;12.57;;;6.28;;
28625;SDS011;18905;42.668;23.364;2023-10-31T00:15:36;13.07;;;6.28;;
28625;SDS011;18905;42.668;23.364;2023-10-31T00:18:02;15.30;;;7.20;;
28625;SDS011;18905;42.668;23.364;2023-10-31T00:20:27;16.38;;;7.50;;
28625;SDS011;18905;42.668;23.364;2023-10-31T00:22:53;14.77;;;6.85;;
28625;SDS011;18905;42.668;23.364;2023-10-31T00:25:18;14.43;;;6.35;;
28625;SDS011;18905;42.668;23.364;2023-10-31T00:27:44;13.30;;;6.43;;
28625;SDS011;18905;42.668;23.364;2023-10-31T00:30:10;13.93;;;6.65;;
28625;SDS011;18905;42.668;23.364;2023-10-31T00:32:35;16.55;;;6.28;;
28625;SDS011;18905;42.668;23.364;2023-10-31T00:35:01;13.38;;;6.55;;
28625;SDS011;18905;42.668;23.364;2023-10-31T00:37:26;11.98;;;6.80;;
28625;SDS011;18905;42.668;23.364;2023-10-31T00:39:52;11.80;;;5.93;;
28625;SDS011;18905;42.668;23.364;2023-10-31T00:42:17;16.75;;;6.70;;
28625;SDS011;18905;42.668;23.364;2023-10-31T00:44:42;13.88;;;6.35;;
28625;SDS011;18905;42.668;23.364;2023-10-31T00:47:08;14.23;;;6.53;;
28625;SDS011;18905;42.668;23.364;2023-10-31T00:49:33;16.15;;;6.38;;
28625;SDS011;18905;42.668;23.364;2023-10-31T00:51:58;13.50;;;6.15;;
28625;SDS011;18905;42.668;23.364;2023-10-31T00:54:24;16.98;;;6.05;;
28625;SDS011;18905;42.668;23.364;2023-10-31T00:56:49;13.55;;;6.28;;
28625;SDS011;18905;42.668;23.364;2023-10-31T00:59:15;15.07;;;6.60;;
28625;SDS011;18905;42.668;23.364;2023-10-31T01:01:40;12.43;;;6.35;;
28625;SDS011;18905;42.668;23.364;2023-10-31T01:04:07;11.23;;;6.05;;
28625;SDS011;18905;42.668;23.364;2023-10-31T01:06:33;18.73;;;6.35;;
28625;SDS011;18905;42.668;23.364;2023-10-31T01:08:58;17.38;;;6.47;;
28625;SDS011;18905;42.668;23.364;2023-10-31T01:11:24;13.85;;;6.80;;
28625;SDS011;18905;42.668;23.364;2023-10-31T01:13:49;11.63;;;6.38;;
28625;SDS011;18905;42.668;23.364;2023-10-31T01:16:14;14.00;;;6.82;;
28625;SDS011;18905;42.668;23.364;2023-10-31T01:18:40;13.55;;;6.25;;
28625;SDS011;18905;42.668;23.364;2023-10-31T01:21:05;15.02;;;6.60;;
28625;SDS011;18905;42.668;23.364;2023-10-31T01:23:31;16.02;;;6.20;;
28625;SDS011;18905;42.668;23.364;2023-10-31T01:25:56;19.00;;;6.82;;
28625;SDS011;18905;42.668;23.364;2023-10-31T01:28:21;18.63;;;7.40;;
28625;SDS011;18905;42.668;23.364;2023-10-31T01:30:47;15.05;;;6.93;;
28625;SDS011;18905;42.668;23.364;2023-10-31T01:33:12;16.98;;;6.00;;
28625;SDS011;18905;42.668;23.364;2023-10-31T01:35:38;16.08;;;6.35;;
28625;SDS011;18905;42.668;23.364;2023-10-31T01:38:03;16.65;;;5.97;;
28625;SDS011;18905;42.668;23.364;2023-10-31T01:40:29;12.82;;;5.82;;
28625;SDS011;18905;42.668;23.364;2023-10-31T01:42:54;15.85;;;6.13;;
28625;SDS011;18905;42.668;23.364;2023-10-31T01:45:20;13.68;;;6.50;;
28625;SDS011;18905;42.668;23.364;2023-10-31T01:47:46;16.30;;;5.55;;
28625;SDS011;18905;42.668;23.364;2023-10-31T01:50:14;12.05;;;5.90;;
28625;SDS011;18905;42.668;23.364;2023-10-31T01:52:39;13.30;;;6.28;;
28625;SDS011;18905;42.668;23.364;2023-10-31T01:55:05;10.07;;;5.50;;
28625;SDS011;18905;42.668;23.364;2023-10-31T01:57:31;14.52;;;5.32;;
28625;SDS011;18905;42.668;23.364;2023-10-31T01:59:57;14.88;;;5.07;;
28625;SDS011;18905;42.668;23.364;2023-10-31T02:02:22;11.80;;;5.28;;
28625;SDS011;18905;42.668;23.364;2023-10-31T02:04:49;15.32;;;5.90;;
28625;SDS011;18905;42.668;23.364;2023-10-31T02:07:15;11.73;;;5.38;;
28625;SDS011;18905;42.668;23.364;2023-10-31T02:09:40;11.07;;;5.38;;
28625;SDS011;18905;42.668;23.364;2023-10-31T02:12:06;13.00;;;5.60;;
28625;SDS011;18905;42.668;23.364;2023-10-31T02:14:31;8.80;;;5.32;;
28625;SDS011;18905;42.668;23.364;2023-10-31T02:16:57;12.73;;;5.55;;
28625;SDS011;18905;42.668;23.364;2023-10-31T02:19:22;12.55;;;5.55;;
28625;SDS011;18905;42.668;23.364;2023-10-31T02:21:48;10.35;;;5.18;;
28625;SDS011;18905;42.668;23.364;2023-10-31T02:24:13;10.02;;;5.20;;
28625;SDS011;18905;42.668;23.364;2023-10-31T02:26:38;11.35;;;5.97;;
28625;SDS011;18905;42.668;23.364;2023-10-31T02:29:04;11.82;;;5.93;;
28625;SDS011;18905;42.668;23.364;2023-10-31T02:31:29;12.93;;;5.20;;
28625;SDS011;18905;42.668;23.364;2023-10-31T02:33:55;13.07;;;5.43;;
28625;SDS011;18905;42.668;23.364;2023-10-31T02:36:21;10.50;;;5.07;;
28625;SDS011;18905;42.668;23.364;2023-10-31T02:38:46;13.52;;;4.82;;
28625;SDS011;18905;42.668;23.364;2023-10-31T02:41:12;11.23;;;4.95;;
28625;SDS011;18905;42.668;23.364;2023-10-31T02:43:38;13.90;;;5.40;;
28625;SDS011;18905;42.668;23.364;2023-10-31T02:46:04;12.20;;;5.05;;
28625;SDS011;18905;42.668;23.364;2023-10-31T02:48:30;10.98;;;5.07;;
28625;SDS011;18905;42.668;23.364;2023-10-31T02:51:03;11.55;;;4.88;;
28625;SDS011;18905;42.668;23.364;2023-10-31T02:53:29;10.23;;;4.82;;
28625;SDS011;18905;42.668;23.364;2023-10-31T02:55:54;11.90;;;5.00;;
28625;SDS011;18905;42.668;23.364;2023-10-31T02:58:20;9.43;;;4.93;;
28625;SDS011;18905;42.668;23.364;2023-10-31T03:00:45;11.40;;;5.32;;
28625;SDS011;18905;42.668;23.364;2023-10-31T03:03:11;8.93;;;4.78;;
28625;SDS011;18905;42.668;23.364;2023-10-31T03:05:36;16.10;;;4.85;;
28625;SDS011;18905;42.668;23.364;2023-10-31T03:08:01;9.30;;;4.85;;
28625;SDS011;18905;42.668;23.364;2023-10-31T03:10:27;12.23;;;5.38;;
28625;SDS011;18905;42.668;23.364;2023-10-31T03:12:52;10.43;;;5.03;;
28625;SDS011;18905;42.668;23.364;2023-10-31T03:15:17;12.20;;;5.22;;
28625;SDS011;18905;42.668;23.364;2023-10-31T03:17:43;10.75;;;5.22;;
28625;SDS011;18905;42.668;23.364;2023-10-31T03:20:08;11.50;;;5.38;;
28625;SDS011;18905;42.668;23.364;2023-10-31T03:22:34;11.20;;;5.35;;
28625;SDS011;18905;42.668;23.364;2023-10-31T03:25:00;9.40;;;5.20;;
28625;SDS011;18905;42.668;23.364;2023-10-31T03:27:26;12.82;;;5.10;;
28625;SDS011;18905;42.668;23.364;2023-10-31T03:29:51;14.38;;;5.57;;
28625;SDS011;18905;42.668;23.364;2023-10-31T03:32:17;9.30;;;4.95;;
28625;SDS011;18905;42.668;23.364;2023-10-31T03:34:42;12.57;;;5.18;;
28625;SDS011;18905;42.668;23.364;2023-10-31T03:37:07;10.73;;;4.80;;
28625;SDS011;18905;42.668;23.364;2023-10-31T03:39:33;13.57;;;5.30;;
28625;SDS011;18905;42.668;23.364;2023-10-31T03:41:59;10.77;;;5.22;;
28625;SDS011;18905;42.668;23.364;2023-10-31T03:44:24;14.93;;;5.70;;
28625;SDS011;18905;42.668;23.364;2023-10-31T03:46:50;11.38;;;5.38;;
28625;SDS011;18905;42.668;23.364;2023-10-31T03:49:15;11.05;;;4.93;;
28625;SDS011;18905;42.668;23.364;2023-10-31T03:51:41;11.25;;;5.45;;
28625;SDS011;18905;42.668;23.364;2023-10-31T03:54:07;10.15;;;4.82;;
28625;SDS011;18905;42.668;23.364;2023-10-31T03:56:39;9.77;;;4.97;;
28625;SDS011;18905;42.668;23.364;2023-10-31T03:59:05;6.57;;;4.07;;
28625;SDS011;18905;42.668;23.364;2023-10-31T04:01:30;11.02;;;4.47;;
28625;SDS011;18905;42.668;23.364;2023-10-31T04:03:56;13.15;;;5.25;;
28625;SDS011;18905;42.668;23.364;2023-10-31T04:06:21;12.65;;;4.60;;
28625;SDS011;18905;42.668;23.364;2023-10-31T04:08:47;8.52;;;4.40;;
28625;SDS011;18905;42.668;23.364;2023-10-31T04:11:12;12.15;;;4.30;;
28625;SDS011;18905;42.668;23.364;2023-10-31T04:13:38;9.55;;;4.50;;
28625;SDS011;18905;42.668;23.364;2023-10-31T04:16:03;16.45;;;6.13;;
28625;SDS011;18905;42.668;23.364;2023-10-31T04:18:29;11.05;;;4.80;;
28625;SDS011;18905;42.668;23.364;2023-10-31T04:20:54;15.15;;;5.45;;
28625;SDS011;18905;42.668;23.364;2023-10-31T04:23:20;10.52;;;5.22;;
28625;SDS011;18905;42.668;23.364;2023-10-31T04:25:45;8.80;;;4.90;;
28625;SDS011;18905;42.668;23.364;2023-10-31T04:28:11;13.55;;;5.28;;
28625;SDS011;18905;42.668;23.364;2023-10-31T04:30:38;16.75;;;6.25;;
28625;SDS011;18905;42.668;23.364;2023-10-31T04:33:03;9.40;;;5.00;;
28625;SDS011;18905;42.668;23.364;2023-10-31T04:35:29;14.45;;;5.95;;
28625;SDS011;18905;42.668;23.364;2023-10-31T04:37:54;16.23;;;6.57;;
28625;SDS011;18905;42.668;23.364;2023-10-31T04:40:19;12.77;;;5.38;;
28625;SDS011;18905;42.668;23.364;2023-10-31T04:42:46;18.95;;;5.60;;
28625;SDS011;18905;42.668;23.364;2023-10-31T04:45:12;9.68;;;5.75;;
28625;SDS011;18905;42.668;23.364;2023-10-31T04:47:37;12.30;;;5.10;;
28625;SDS011;18905;42.668;23.364;2023-10-31T04:50:03;10.02;;;5.50;;
28625;SDS011;18905;42.668;23.364;2023-10-31T04:52:29;10.98;;;5.22;;
28625;SDS011;18905;42.668;23.364;2023-10-31T04:54:54;13.85;;;6.72;;
28625;SDS011;18905;42.668;23.364;2023-10-31T04:57:19;17.13;;;8.07;;
28625;SDS011;18905;42.668;23.364;2023-10-31T04:59:45;17.27;;;7.78;;
28625;SDS011;18905;42.668;23.364;2023-10-31T05:02:10;21.20;;;10.70;;
28625;SDS011;18905;42.668;23.364;2023-10-31T05:04:39;23.52;;;11.57;;
28625;SDS011;18905;42.668;23.364;2023-10-31T05:07:05;16.98;;;9.57;;
28625;SDS011;18905;42.668;23.364;2023-10-31T05:09:30;18.80;;;9.52;;
28625;SDS011;18905;42.668;23.364;2023-10-31T05:11:56;20.63;;;9.35;;
28625;SDS011;18905;42.668;23.364;2023-10-31T05:14:21;17.77;;;9.32;;
28625;SDS011;18905;42.668;23.364;2023-10-31T05:16:49;19.27;;;9.50;;
28625;SDS011;18905;42.668;23.364;2023-10-31T05:19:15;22.85;;;10.48;;
28625;SDS011;18905;42.668;23.364;2023-10-31T05:21:40;27.38;;;13.15;;
28625;SDS011;18905;42.668;23.364;2023-10-31T05:24:06;24.17;;;12.30;;
28625;SDS011;18905;42.668;23.364;2023-10-31T05:26:32;24.27;;;12.35;;
28625;SDS011;18905;42.668;23.364;2023-10-31T05:28:57;25.55;;;12.63;;
28625;SDS011;18905;42.668;23.364;2023-10-31T05:31:23;27.48;;;11.65;;
28625;SDS011;18905;42.668;23.364;2023-10-31T05:33:49;13.93;;;7.60;;
28625;SDS011;18905;42.668;23.364;2023-10-31T05:36:22;23.02;;;10.10;;
28625;SDS011;18905;42.668;23.364;2023-10-31T05:38:48;21.63;;;9.60;;
28625;SDS011;18905;42.668;23.364;2023-10-31T05:41:14;17.90;;;10.02;;
28625;SDS011;18905;42.668;23.364;2023-10-31T05:43:40;20.92;;;13.00;;
28625;SDS011;18905;42.668;23.364;2023-10-31T05:46:06;29.15;;;14.48;;
28625;SDS011;18905;42.668;23.364;2023-10-31T05:48:35;20.63;;;10.15;;
28625;SDS011;18905;42.668;23.364;2023-10-31T05:51:01;14.10;;;5.95;;
28625;SDS011;18905;42.668;23.364;2023-10-31T05:53:27;14.82;;;8.27;;
28625;SDS011;18905;42.668;23.364;2023-10-31T05:55:53;19.27;;;8.45;;
28625;SDS011;18905;42.668;23.364;2023-10-31T05:58:18;25.90;;;7.93;;
28625;SDS011;18905;42.668;23.364;2023-10-31T06:00:43;18.58;;;8.93;;
28625;SDS011;18905;42.668;23.364;2023-10-31T06:03:09;17.30;;;9.05;;
28625;SDS011;18905;42.668;23.364;2023-10-31T06:05:34;24.92;;;10.02;;
28625;SDS011;18905;42.668;23.364;2023-10-31T06:08:00;22.10;;;8.13;;
28625;SDS011;18905;42.668;23.364;2023-10-31T06:10:25;18.30;;;7.80;;
28625;SDS011;18905;42.668;23.364;2023-10-31T06:12:51;20.02;;;7.05;;
28625;SDS011;18905;42.668;23.364;2023-10-31T06:15:16;17.20;;;7.53;;
28625;SDS011;18905;42.668;23.364;2023-10-31T06:17:42;18.05;;;7.30;;
28625;SDS011;18905;42.668;23.364;2023-10-31T06:20:08;22.52;;;8.00;;
28625;SDS011;18905;42.668;23.364;2023-10-31T06:22:34;23.00;;;8.98;;
28625;SDS011;18905;42.668;23.364;2023-10-31T06:24:59;20.73;;;9.80;;
28625;SDS011;18905;42.668;23.364;2023-10-31T06:27:24;19.25;;;9.52;;
28625;SDS011;18905;42.668;23.364;2023-10-31T06:29:50;20.42;;;8.98;;
28625;SDS011;18905;42.668;23.364;2023-10-31T06:32:15;24.52;;;10.10;;
28625;SDS011;18905;42.668;23.364;2023-10-31T06:34:41;26.35;;;10.00;;
28625;SDS011;18905;42.668;23.364;2023-10-31T06:37:06;24.23;;;10.18;;
28625;SDS011;18905;42.668;23.364;2023-10-31T06:39:31;26.13;;;10.27;;
28625;SDS011;18905;42.668;23.364;2023-10-31T06:41:57;30.55;;;11.00;;
28625;SDS011;18905;42.668;23.364;2023-10-31T06:44:23;27.20;;;10.43;;
28625;SDS011;18905;42.668;23.364;2023-10-31T06:46:48;26.42;;;8.55;;
28625;SDS011;18905;42.668;23.364;2023-10-31T06:49:14;23.73;;;9.75;;
28625;SDS011;18905;42.668;23.364;2023-10-31T06:51:40;32.72;;;10.20;;
28625;SDS011;18905;42.668;23.364;2023-10-31T06:54:05;26.60;;;10.13;;
28625;SDS011;18905;42.668;23.364;2023-10-31T06:56:31;25.02;;;9.75;;
28625;SDS011;18905;42.668;23.364;2023-10-31T06:58:56;23.25;;;9.20;;
28625;SDS011;18905;42.668;23.364;2023-10-31T07:01:22;14.48;;;8.27;;
28625;SDS011;18905;42.668;23.364;2023-10-31T07:03:47;24.17;;;12.27;;
28625;SDS011;18905;42.668;23.364;2023-10-31T07:06:12;22.02;;;9.13;;
28625;SDS011;18905;42.668;23.364;2023-10-31T07:08:38;28.95;;;10.40;;
28625;SDS011;18905;42.668;23.364;2023-10-31T07:11:03;15.77;;;7.60;;
28625;SDS011;18905;42.668;23.364;2023-10-31T07:13:30;18.40;;;6.70;;
28625;SDS011;18905;42.668;23.364;2023-10-31T07:15:55;16.15;;;6.05;;
28625;SDS011;18905;42.668;23.364;2023-10-31T07:18:21;12.32;;;6.55;;
28625;SDS011;18905;42.668;23.364;2023-10-31T07:20:46;19.60;;;8.43;;
28625;SDS011;18905;42.668;23.364;2023-10-31T07:23:11;15.93;;;6.68;;
28625;SDS011;18905;42.668;23.364;2023-10-31T07:25:37;14.23;;;7.40;;
28625;SDS011;18905;42.668;23.364;2023-10-31T07:28:02;14.80;;;7.13;;
28625;SDS011;18905;42.668;23.364;2023-10-31T07:30:28;20.42;;;7.50;;
28625;SDS011;18905;42.668;23.364;2023-10-31T07:32:53;20.17;;;6.57;;
28625;SDS011;18905;42.668;23.364;2023-10-31T07:35:18;16.00;;;6.55;;
28625;SDS011;18905;42.668;23.364;2023-10-31T07:37:44;12.07;;;6.30;;
28625;SDS011;18905;42.668;23.364;2023-10-31T07:40:10;20.60;;;7.65;;
28625;SDS011;18905;42.668;23.364;2023-10-31T07:42:36;16.67;;;7.20;;
28625;SDS011;18905;42.668;23.364;2023-10-31T07:45:01;17.17;;;6.13;;
28625;SDS011;18905;42.668;23.364;2023-10-31T07:47:27;17.85;;;7.47;;
28625;SDS011;18905;42.668;23.364;2023-10-31T07:49:53;11.38;;;5.95;;
28625;SDS011;18905;42.668;23.364;2023-10-31T07:52:18;14.32;;;6.13;;
28625;SDS011;18905;42.668;23.364;2023-10-31T07:54:44;11.50;;;6.90;;
28625;SDS011;18905;42.668;23.364;2023-10-31T07:57:09;22.80;;;7.10;;
28625;SDS011;18905;42.668;23.364;2023-10-31T07:59:35;18.80;;;6.93;;
28625;SDS011;18905;42.668;23.364;2023-10-31T08:02:00;11.40;;;6.10;;
28625;SDS011;18905;42.668;23.364;2023-10-31T08:04:26;14.07;;;6.07;;
28625;SDS011;18905;42.668;23.364;2023-10-31T08:06:53;15.18;;;5.43;;
28625;SDS011;18905;42.668;23.364;2023-10-31T08:09:18;13.50;;;5.85;;
28625;SDS011;18905;42.668;23.364;2023-10-31T08:11:44;19.20;;;5.63;;
28625;SDS011;18905;42.668;23.364;2023-10-31T08:14:09;10.30;;;5.15;;
28625;SDS011;18905;42.668;23.364;2023-10-31T08:16:35;18.55;;;5.90;;
28625;SDS011;18905;42.668;23.364;2023-10-31T08:19:02;12.15;;;5.30;;
28625;SDS011;18905;42.668;23.364;2023-10-31T08:21:27;10.90;;;5.25;;
28625;SDS011;18905;42.668;23.364;2023-10-31T08:24:00;10.38;;;5.78;;
28625;SDS011;18905;42.668;23.364;2023-10-31T08:26:30;14.10;;;5.40;;
28625;SDS011;18905;42.668;23.364;2023-10-31T08:28:56;14.40;;;5.13;;
28625;SDS011;18905;42.668;23.364;2023-10-31T08:31:21;16.88;;;5.38;;
28625;SDS011;18905;42.668;23.364;2023-10-31T08:33:47;14.45;;;5.15;;
28625;SDS011;18905;42.668;23.364;2023-10-31T08:36:12;15.13;;;4.53;;
28625;SDS011;18905;42.668;23.364;2023-10-31T08:38:38;16.23;;;4.95;;
28625;SDS011;18905;42.668;23.364;2023-10-31T08:41:03;11.23;;;5.43;;
28625;SDS011;18905;42.668;23.364;2023-10-31T08:43:29;14.73;;;4.38;;
28625;SDS011;18905;42.668;23.364;2023-10-31T08:45:54;18.23;;;4.97;;
28625;SDS011;18905;42.668;23.364;2023-10-31T08:48:19;12.98;;;4.70;;
28625;SDS011;18905;42.668;23.364;2023-10-31T08:50:45;14.75;;;4.93;;
28625;SDS011;18905;42.668;23.364;2023-10-31T08:53:11;10.60;;;3.92;;
28625;SDS011;18905;42.668;23.364;2023-10-31T08:55:36;10.48;;;4.63;;
28625;SDS011;18905;42.668;23.364;2023-10-31T08:58:01;13.38;;;4.90;;
28625;SDS011;18905;42.668;23.364;2023-10-31T09:00:27;16.15;;;5.05;;
28625;SDS011;18905;42.668;23.364;2023-10-31T09:02:53;14.15;;;5.50;;
28625;SDS011;18905;42.668;23.364;2023-10-31T09:05:19;18.13;;;5.13;;
28625;SDS011;18905;42.668;23.364;2023-10-31T09:07:45;19.55;;;5.05;;
28625;SDS011;18905;42.668;23.364;2023-10-31T09:10:11;11.77;;;5.57;;
28625;SDS011;18905;42.668;23.364;2023-10-31T09:12:37;12.55;;;4.97;;
28625;SDS011;18905;42.668;23.364;2023-10-31T09:15:03;10.88;;;4.82;;
28625;SDS011;18905;42.668;23.364;2023-10-31T09:17:29;13.23;;;5.88;;
28625;SDS011;18905;42.668;23.364;2023-10-31T09:19:54;16.73;;;5.28;;
28625;SDS011;18905;42.668;23.364;2023-10-31T09:22:20;14.82;;;5.93;;
28625;SDS011;18905;42.668;23.364;2023-10-31T09:24:46;20.85;;;5.90;;
28625;SDS011;18905;42.668;23.364;2023-10-31T09:27:11;15.82;;;6.40;;
28625;SDS011;18905;42.668;23.364;2023-10-31T09:29:36;17.27;;;7.10;;
28625;SDS011;18905;42.668;23.364;2023-10-31T09:32:02;21.38;;;7.07;;
28625;SDS011;18905;42.668;23.364;2023-10-31T09:34:28;19.65;;;6.50;;
28625;SDS011;18905;42.668;23.364;2023-10-31T09:36:54;16.05;;;7.15;;
28625;SDS011;18905;42.668;23.364;2023-10-31T09:39:19;22.73;;;6.97;;
28625;SDS011;18905;42.668;23.364;2023-10-31T09:41:44;17.13;;;8.38;;
28625;SDS011;18905;42.668;23.364;2023-10-31T09:44:10;21.70;;;7.45;;
28625;SDS011;18905;42.668;23.364;2023-10-31T09:46:35;22.10;;;7.15;;
28625;SDS011;18905;42.668;23.364;2023-10-31T09:49:02;15.20;;;7.00;;
28625;SDS011;18905;42.668;23.364;2023-10-31T09:51:28;19.63;;;7.78;;
28625;SDS011;18905;42.668;23.364;2023-10-31T09:53:53;13.13;;;6.32;;
28625;SDS011;18905;42.668;23.364;2023-10-31T09:56:20;20.33;;;6.18;;
28625;SDS011;18905;42.668;23.364;2023-10-31T09:58:46;23.88;;;7.28;;
28625;SDS011;18905;42.668;23.364;2023-10-31T10:01:12;16.23;;;6.68;;
28625;SDS011;18905;42.668;23.364;2023-10-31T10:03:38;15.40;;;5.70;;
28625;SDS011;18905;42.668;23.364;2023-10-31T10:06:03;15.68;;;5.88;;
28625;SDS011;18905;42.668;23.364;2023-10-31T10:08:29;13.50;;;5.18;;
28625;SDS011;18905;42.668;23.364;2023-10-31T10:10:54;21.48;;;5.80;;
28625;SDS011;18905;42.668;23.364;2023-10-31T10:13:20;12.52;;;4.88;;
28625;SDS011;18905;42.668;23.364;2023-10-31T10:15:46;14.48;;;5.40;;
28625;SDS011;18905;42.668;23.364;2023-10-31T10:20:55;17.00;;;4.75;;
28625;SDS011;18905;42.668;23.364;2023-10-31T10:23:24;11.60;;;4.50;;
28625;SDS011;18905;42.668;23.364;2023-10-31T10:25:50;14.10;;;4.70;;
28625;SDS011;18905;42.668;23.364;2023-10-31T10:28:16;14.32;;;4.50;;
28625;SDS011;18905;42.668;23.364;2023-10-31T10:30:45;15.07;;;5.03;;
28625;SDS011;18905;42.668;23.364;2023-10-31T10:33:14;21.20;;;4.95;;
28625;SDS011;18905;42.668;23.364;2023-10-31T10:35:40;13.07;;;4.82;;
28625;SDS011;18905;42.668;23.364;2023-10-31T10:38:09;15.85;;;4.55;;
28625;SDS011;18905;42.668;23.364;2023-10-31T10:40:39;13.35;;;4.50;;
28625;SDS011;18905;42.668;23.364;2023-10-31T10:43:13;12.68;;;4.25;;
28625;SDS011;18905;42.668;23.364;2023-10-31T10:45:41;14.35;;;4.13;;
28625;SDS011;18905;42.668;23.364;2023-10-31T10:48:10;11.52;;;3.67;;
28625;SDS011;18905;42.668;23.364;2023-10-31T10:50:42;9.93;;;3.90;;
28625;SDS011;18905;42.668;23.364;2023-10-31T10:53:24;16.85;;;4.13;;
28625;SDS011;18905;42.668;23.364;2023-10-31T10:55:59;23.13;;;4.60;;
28625;SDS011;18905;42.668;23.364;2023-10-31T10:58:31;7.75;;;3.53;;
28625;SDS011;18905;42.668;23.364;2023-10-31T11:01:01;12.15;;;4.30;;
28625;SDS011;18905;42.668;23.364;2023-10-31T11:03:29;11.52;;;3.85;;
28625;SDS011;18905;42.668;23.364;2023-10-31T11:05:56;15.30;;;4.18;;
28625;SDS011;18905;42.668;23.364;2023-10-31T11:08:23;17.23;;;4.72;;
28625;SDS011;18905;42.668;23.364;2023-10-31T11:10:48;9.32;;;4.22;;
28625;SDS011;18905;42.668;23.364;2023-10-31T11:13:15;12.73;;;4.85;;
28625;SDS011;18905;42.668;23.364;2023-10-31T11:15:40;16.35;;;4.70;;
28625;SDS011;18905;42.668;23.364;2023-10-31T11:18:07;13.07;;;4.35;;
28625;SDS011;18905;42.668;23.364;2023-10-31T11:20:33;11.50;;;3.88;;
28625;SDS011;18905;42.668;23.364;2023-10-31T11:23:00;15.23;;;4.38;;
28625;SDS011;18905;42.668;23.364;2023-10-31T11:25:30;9.52;;;3.63;;
28625;SDS011;18905;42.668;23.364;2023-10-31T11:27:57;13.43;;;3.80;;
28625;SDS011;18905;42.668;23.364;2023-10-31T11:30:35;12.52;;;3.50;;
28625;SDS011;18905;42.668;23.364;2023-10-31T11:33:00;15.07;;;3.88;;
28625;SDS011;18905;42.668;23.364;2023-10-31T11:35:32;12.88;;;4.10;;
28625;SDS011;18905;42.668;23.364;2023-10-31T11:38:02;10.38;;;3.60;;
28625;SDS011;18905;42.668;23.364;2023-10-31T11:43:04;8.73;;;3.22;;
28625;SDS011;18905;42.668;23.364;2023-10-31T11:45:39;11.27;;;3.10;;
28625;SDS011;18905;42.668;23.364;2023-10-31T11:48:13;20.77;;;5.00;;
28625;SDS011;18905;42.668;23.364;2023-10-31T11:50:39;10.57;;;4.03;;
28625;SDS011;18905;42.668;23.364;2023-10-31T11:55:35;10.63;;;3.58;;
28625;SDS011;18905;42.668;23.364;2023-10-31T12:01:03;18.42;;;5.03;;
28625;SDS011;18905;42.668;23.364;2023-10-31T12:03:40;14.88;;;5.20;;
28625;SDS011;18905;42.668;23.364;2023-10-31T12:06:07;14.05;;;4.53;;
28625;SDS011;18905;42.668;23.364;2023-10-31T12:08:41;9.60;;;4.10;;
28625;SDS011;18905;42.668;23.364;2023-10-31T12:11:08;14.00;;;4.28;;
28625;SDS011;18905;42.668;23.364;2023-10-31T12:13:36;12.32;;;4.20;;
28625;SDS011;18905;42.668;23.364;2023-10-31T12:16:03;15.55;;;5.20;;
28625;SDS011;18905;42.668;23.364;2023-10-31T12:18:30;16.10;;;5.90;;
28625;SDS011;18905;42.668;23.364;2023-10-31T12:20:56;10.18;;;3.75;;
28625;SDS011;18905;42.668;23.364;2023-10-31T12:23:21;19.63;;;4.68;;
28625;SDS011;18905;42.668;23.364;2023-10-31T12:25:47;12.43;;;4.80;;
28625;SDS011;18905;42.668;23.364;2023-10-31T12:28:20;13.27;;;3.30;;
28625;SDS011;18905;42.668;23.364;2023-10-31T12:30:47;15.52;;;5.88;;
28625;SDS011;18905;42.668;23.364;2023-10-31T12:33:13;14.43;;;4.60;;
28625;SDS011;18905;42.668;23.364;2023-10-31T12:35:39;24.20;;;4.40;;
28625;SDS011;18905;42.668;23.364;2023-10-31T12:38:04;14.15;;;4.47;;
28625;SDS011;18905;42.668;23.364;2023-10-31T12:40:31;14.25;;;4.45;;
28625;SDS011;18905;42.668;23.364;2023-10-31T12:42:58;10.80;;;4.22;;
28625;SDS011;18905;42.668;23.364;2023-10-31T12:45:24;15.82;;;3.80;;
28625;SDS011;18905;42.668;23.364;2023-10-31T12:48:08;15.02;;;4.72;;
28625;SDS011;18905;42.668;23.364;2023-10-31T12:50:35;11.27;;;3.88;;
28625;SDS011;18905;42.668;23.364;2023-10-31T12:53:03;13.52;;;3.70;;
28625;SDS011;18905;42.668;23.364;2023-10-31T12:55:29;9.25;;;3.70;;
28625;SDS011;18905;42.668;23.364;2023-10-31T12:57:56;9.13;;;3.63;;
28625;SDS011;18905;42.668;23.364;2023-10-31T13:00:22;17.13;;;3.72;;
28625;SDS011;18905;42.668;23.364;2023-10-31T13:03:06;13.30;;;4.13;;
28625;SDS011;18905;42.668;23.364;2023-10-31T13:05:36;8.55;;;3.35;;
28625;SDS011;18905;42.668;23.364;2023-10-31T13:08:08;13.75;;;3.70;;
28625;SDS011;18905;42.668;23.364;2023-10-31T13:10:39;13.18;;;4.20;;
28625;SDS011;18905;42.668;23.364;2023-10-31T13:13:04;23.05;;;4.30;;
28625;SDS011;18905;42.668;23.364;2023-10-31T13:15:30;12.93;;;4.18;;
28625;SDS011;18905;42.668;23.364;2023-10-31T13:17:55;19.33;;;10.07;;
28625;SDS011;18905;42.668;23.364;2023-10-31T13:20:22;24.48;;;8.85;;
28625;SDS011;18905;42.668;23.364;2023-10-31T13:22:48;12.23;;;4.40;;
28625;SDS011;18905;42.668;23.364;2023-10-31T13:25:14;22.27;;;3.85;;
28625;SDS011;18905;42.668;23.364;2023-10-31T13:27:41;9.80;;;4.30;;
28625;SDS011;18905;42.668;23.364;2023-10-31T13:30:08;9.77;;;3.92;;
28625;SDS011;18905;42.668;23.364;2023-10-31T13:32:38;14.90;;;4.43;;
28625;SDS011;18905;42.668;23.364;2023-10-31T13:35:05;17.58;;;5.55;;
28625;SDS011;18905;42.668;23.364;2023-10-31T13:37:30;19.23;;;5.03;;
28625;SDS011;18905;42.668;23.364;2023-10-31T13:39:56;22.23;;;5.43;;
28625;SDS011;18905;42.668;23.364;2023-10-31T13:42:21;15.48;;;4.78;;
28625;SDS011;18905;42.668;23.364;2023-10-31T13:44:47;14.60;;;4.88;;
28625;SDS011;18905;42.668;23.364;2023-10-31T13:47:13;16.45;;;4.50;;
28625;SDS011;18905;42.668;23.364;2023-10-31T13:49:39;14.85;;;4.35;;
28625;SDS011;18905;42.668;23.364;2023-10-31T13:52:04;14.10;;;4.32;;
28625;SDS011;18905;42.668;23.364;2023-10-31T13:54:33;18.38;;;3.90;;
28625;SDS011;18905;42.668;23.364;2023-10-31T13:56:58;17.58;;;4.03;;
28625;SDS011;18905;42.668;23.364;2023-10-31T13:59:24;16.92;;;4.65;;
28625;SDS011;18905;42.668;23.364;2023-10-31T14:01:50;12.38;;;4.28;;
28625;SDS011;18905;42.668;23.364;2023-10-31T14:04:15;13.07;;;3.80;;
28625;SDS011;18905;42.668;23.364;2023-10-31T14:06:42;13.10;;;3.47;;
28625;SDS011;18905;42.668;23.364;2023-10-31T14:09:08;16.20;;;6.25;;
28625;SDS011;18905;42.668;23.364;2023-10-31T14:11:34;15.00;;;5.05;;
28625;SDS011;18905;42.668;23.364;2023-10-31T14:14:01;15.23;;;4.68;;
28625;SDS011;18905;42.668;23.364;2023-10-31T14:16:41;16.35;;;7.20;;
28625;SDS011;18905;42.668;23.364;2023-10-31T14:19:10;15.50;;;5.00;;
28625;SDS011;18905;42.668;23.364;2023-10-31T14:21:36;14.20;;;4.80;;
28625;SDS011;18905;42.668;23.364;2023-10-31T14:24:02;13.15;;;4.45;;
28625;SDS011;18905;42.668;23.364;2023-10-31T14:26:28;15.52;;;5.03;;